sensor_id;sensor_type;location;lat;lon;timestamp;P1;durP1;ratioP1;P2;durP2;ratioP2
11300;SDS011;5706;50.650;13.380;2023-04-07T00:01:04;9.90;;;7.17;;
11300;SDS011;5706;50.650;13.380;2023-04-07T00:03:32;9.17;;;6.70;;
11300;SDS011;5706;50.650;13.380;2023-04-07T00:06:00;9.33;;;7.50;;
11300;SDS011;5706;50.650;13.380;2023-04-07T00:08:30;7.87;;;6.50;;
11300;SDS011;5706;50.650;13.380;2023-04-07T00:10:57;7.83;;;6.23;;
11300;SDS011;5706;50.650;13.380;2023-04-07T00:13:25;7.73;;;6.10;;
11300;SDS011;5706;50.650;13.380;2023-04-07T00:15:55;7.80;;;6.27;;
11300;SDS011;5706;50.650;13.380;2023-04-07T00:18:22;8.63;;;6.30;;
11300;SDS011;5706;50.650;13.380;2023-04-07T00:20:50;7.67;;;6.10;;
11300;SDS011;5706;50.650;13.380;2023-04-07T00:23:18;6.87;;;5.53;;
11300;SDS011;5706;50.650;13.380;2023-04-07T00:25:48;9.03;;;5.97;;
11300;SDS011;5706;50.650;13.380;2023-04-07T00:28:15;8.77;;;6.13;;
11300;SDS011;5706;50.650;13.380;2023-04-07T00:30:43;6.60;;;5.90;;
11300;SDS011;5706;50.650;13.380;2023-04-07T00:33:10;6.90;;;5.67;;
11300;SDS011;5706;50.650;13.380;2023-04-07T00:35:38;8.60;;;6.13;;
11300;SDS011;5706;50.650;13.380;2023-04-07T00:38:05;6.17;;;5.57;;
11300;SDS011;5706;50.650;13.380;2023-04-07T00:40:33;7.03;;;5.50;;
11300;SDS011;5706;50.650;13.380;2023-04-07T00:43:02;6.37;;;5.70;;
11300;SDS011;5706;50.650;13.380;2023-04-07T00:45:29;7.27;;;4.97;;
11300;SDS011;5706;50.650;13.380;2023-04-07T00:47:57;8.53;;;6.07;;
11300;SDS011;5706;50.650;13.380;2023-04-07T00:50:25;6.60;;;5.47;;
11300;SDS011;5706;50.650;13.380;2023-04-07T00:52:52;9.57;;;5.93;;
11300;SDS011;5706;50.650;13.380;2023-04-07T00:55:21;9.13;;;6.03;;
11300;SDS011;5706;50.650;13.380;2023-04-07T00:57:48;6.20;;;5.40;;
11300;SDS011;5706;50.650;13.380;2023-04-07T01:00:18;8.33;;;6.10;;
11300;SDS011;5706;50.650;13.380;2023-04-07T01:02:46;6.37;;;5.77;;
11300;SDS011;5706;50.650;13.380;2023-04-07T01:05:24;6.53;;;5.77;;
11300;SDS011;5706;50.650;13.380;2023-04-07T01:08:07;6.67;;;5.60;;
11300;SDS011;5706;50.650;13.380;2023-04-07T01:10:46;9.00;;;5.73;;
11300;SDS011;5706;50.650;13.380;2023-04-07T01:13:22;6.97;;;5.60;;
11300;SDS011;5706;50.650;13.380;2023-04-07T01:15:59;6.83;;;5.87;;
11300;SDS011;5706;50.650;13.380;2023-04-07T01:18:34;5.97;;;4.90;;
11300;SDS011;5706;50.650;13.380;2023-04-07T01:21:05;7.13;;;5.83;;
11300;SDS011;5706;50.650;13.380;2023-04-07T01:23:45;8.50;;;5.70;;
11300;SDS011;5706;50.650;13.380;2023-04-07T01:26:27;7.87;;;5.40;;
11300;SDS011;5706;50.650;13.380;2023-04-07T01:31:58;5.43;;;4.90;;
11300;SDS011;5706;50.650;13.380;2023-04-07T01:34:29;5.93;;;5.30;;
11300;SDS011;5706;50.650;13.380;2023-04-07T01:36:59;7.20;;;5.23;;
11300;SDS011;5706;50.650;13.380;2023-04-07T01:39:28;8.63;;;5.40;;
11300;SDS011;5706;50.650;13.380;2023-04-07T01:41:57;5.97;;;5.03;;
11300;SDS011;5706;50.650;13.380;2023-04-07T01:44:27;7.30;;;5.07;;
11300;SDS011;5706;50.650;13.380;2023-04-07T01:46:58;6.00;;;5.37;;
11300;SDS011;5706;50.650;13.380;2023-04-07T01:49:27;8.63;;;5.80;;
11300;SDS011;5706;50.650;13.380;2023-04-07T01:51:57;5.67;;;5.17;;
11300;SDS011;5706;50.650;13.380;2023-04-07T01:54:27;6.20;;;4.77;;
11300;SDS011;5706;50.650;13.380;2023-04-07T01:56:55;6.83;;;5.13;;
11300;SDS011;5706;50.650;13.380;2023-04-07T01:59:23;7.73;;;5.80;;
11300;SDS011;5706;50.650;13.380;2023-04-07T02:01:52;5.60;;;4.90;;
11300;SDS011;5706;50.650;13.380;2023-04-07T02:04:21;5.73;;;4.67;;
11300;SDS011;5706;50.650;13.380;2023-04-07T02:06:58;6.83;;;5.33;;
11300;SDS011;5706;50.650;13.380;2023-04-07T02:09:33;5.90;;;4.83;;
11300;SDS011;5706;50.650;13.380;2023-04-07T02:12:06;6.00;;;5.17;;
11300;SDS011;5706;50.650;13.380;2023-04-07T02:14:36;5.67;;;4.30;;
11300;SDS011;5706;50.650;13.380;2023-04-07T02:17:06;6.97;;;5.20;;
11300;SDS011;5706;50.650;13.380;2023-04-07T02:19:35;6.60;;;5.03;;
11300;SDS011;5706;50.650;13.380;2023-04-07T02:22:04;5.77;;;5.03;;
11300;SDS011;5706;50.650;13.380;2023-04-07T02:24:33;7.33;;;4.70;;
11300;SDS011;5706;50.650;13.380;2023-04-07T02:27:00;5.97;;;5.17;;
11300;SDS011;5706;50.650;13.380;2023-04-07T02:29:28;7.10;;;5.23;;
11300;SDS011;5706;50.650;13.380;2023-04-07T02:31:56;5.13;;;4.63;;
11300;SDS011;5706;50.650;13.380;2023-04-07T02:34:25;6.07;;;4.80;;
11300;SDS011;5706;50.650;13.380;2023-04-07T02:36:52;6.43;;;5.00;;
11300;SDS011;5706;50.650;13.380;2023-04-07T02:39:20;5.10;;;4.60;;
11300;SDS011;5706;50.650;13.380;2023-04-07T02:41:47;5.87;;;4.80;;
11300;SDS011;5706;50.650;13.380;2023-04-07T02:44:15;5.27;;;4.73;;
11300;SDS011;5706;50.650;13.380;2023-04-07T02:46:42;6.17;;;4.70;;
11300;SDS011;5706;50.650;13.380;2023-04-07T02:49:10;6.60;;;5.07;;
11300;SDS011;5706;50.650;13.380;2023-04-07T02:51:39;5.50;;;4.33;;
11300;SDS011;5706;50.650;13.380;2023-04-07T02:54:06;5.67;;;4.47;;
11300;SDS011;5706;50.650;13.380;2023-04-07T02:56:34;4.53;;;4.13;;
11300;SDS011;5706;50.650;13.380;2023-04-07T02:59:01;7.33;;;5.03;;
11300;SDS011;5706;50.650;13.380;2023-04-07T03:01:29;5.83;;;4.40;;
11300;SDS011;5706;50.650;13.380;2023-04-07T03:03:58;5.33;;;4.27;;
11300;SDS011;5706;50.650;13.380;2023-04-07T03:06:26;5.97;;;4.60;;
11300;SDS011;5706;50.650;13.380;2023-04-07T03:08:55;5.17;;;4.70;;
11300;SDS011;5706;50.650;13.380;2023-04-07T03:11:22;6.17;;;4.80;;
11300;SDS011;5706;50.650;13.380;2023-04-07T03:13:50;4.60;;;4.20;;
11300;SDS011;5706;50.650;13.380;2023-04-07T03:16:17;5.30;;;4.77;;
11300;SDS011;5706;50.650;13.380;2023-04-07T03:18:45;6.03;;;4.70;;
11300;SDS011;5706;50.650;13.380;2023-04-07T03:21:12;6.70;;;5.07;;
11300;SDS011;5706;50.650;13.380;2023-04-07T03:23:40;5.80;;;4.80;;
11300;SDS011;5706;50.650;13.380;2023-04-07T03:26:09;6.27;;;4.70;;
11300;SDS011;5706;50.650;13.380;2023-04-07T03:28:36;5.57;;;4.97;;
11300;SDS011;5706;50.650;13.380;2023-04-07T03:31:04;5.33;;;4.83;;
11300;SDS011;5706;50.650;13.380;2023-04-07T03:33:31;4.67;;;4.27;;
11300;SDS011;5706;50.650;13.380;2023-04-07T03:35:59;6.50;;;4.93;;
11300;SDS011;5706;50.650;13.380;2023-04-07T03:38:27;6.27;;;4.87;;
11300;SDS011;5706;50.650;13.380;2023-04-07T03:40:54;6.90;;;5.10;;
11300;SDS011;5706;50.650;13.380;2023-04-07T03:43:23;5.90;;;4.63;;
11300;SDS011;5706;50.650;13.380;2023-04-07T03:45:51;6.77;;;4.80;;
11300;SDS011;5706;50.650;13.380;2023-04-07T03:48:19;5.73;;;4.60;;
11300;SDS011;5706;50.650;13.380;2023-04-07T03:50:46;4.83;;;4.20;;
11300;SDS011;5706;50.650;13.380;2023-04-07T03:53:14;4.40;;;4.00;;
11300;SDS011;5706;50.650;13.380;2023-04-07T03:55:43;5.00;;;4.50;;
11300;SDS011;5706;50.650;13.380;2023-04-07T03:58:11;6.73;;;4.90;;
11300;SDS011;5706;50.650;13.380;2023-04-07T04:00:40;7.57;;;4.93;;
11300;SDS011;5706;50.650;13.380;2023-04-07T04:03:07;4.53;;;4.13;;
11300;SDS011;5706;50.650;13.380;2023-04-07T04:05:36;5.10;;;4.60;;
11300;SDS011;5706;50.650;13.380;2023-04-07T04:08:04;5.47;;;4.50;;
11300;SDS011;5706;50.650;13.380;2023-04-07T04:10:32;4.83;;;3.97;;
11300;SDS011;5706;50.650;13.380;2023-04-07T04:13:00;7.13;;;4.83;;
11300;SDS011;5706;50.650;13.380;2023-04-07T04:15:30;6.20;;;4.47;;
11300;SDS011;5706;50.650;13.380;2023-04-07T04:17:59;7.87;;;4.77;;
11300;SDS011;5706;50.650;13.380;2023-04-07T04:20:27;6.50;;;4.43;;
11300;SDS011;5706;50.650;13.380;2023-04-07T04:22:54;6.77;;;4.67;;
11300;SDS011;5706;50.650;13.380;2023-04-07T04:25:22;6.23;;;4.83;;
11300;SDS011;5706;50.650;13.380;2023-04-07T04:27:50;7.53;;;4.80;;
11300;SDS011;5706;50.650;13.380;2023-04-07T04:30:18;6.53;;;4.97;;
11300;SDS011;5706;50.650;13.380;2023-04-07T04:32:45;5.33;;;4.60;;
11300;SDS011;5706;50.650;13.380;2023-04-07T04:35:15;4.60;;;4.07;;
11300;SDS011;5706;50.650;13.380;2023-04-07T04:37:42;5.10;;;4.53;;
11300;SDS011;5706;50.650;13.380;2023-04-07T04:40:10;5.23;;;4.60;;
11300;SDS011;5706;50.650;13.380;2023-04-07T04:42:38;5.27;;;4.57;;
11300;SDS011;5706;50.650;13.380;2023-04-07T04:45:07;5.53;;;4.87;;
11300;SDS011;5706;50.650;13.380;2023-04-07T04:47:35;4.70;;;4.20;;
11300;SDS011;5706;50.650;13.380;2023-04-07T04:50:03;6.93;;;5.07;;
11300;SDS011;5706;50.650;13.380;2023-04-07T04:52:34;5.03;;;4.53;;
11300;SDS011;5706;50.650;13.380;2023-04-07T04:55:03;5.40;;;4.27;;
11300;SDS011;5706;50.650;13.380;2023-04-07T04:57:31;5.73;;;5.13;;
11300;SDS011;5706;50.650;13.380;2023-04-07T05:00:00;6.73;;;5.33;;
11300;SDS011;5706;50.650;13.380;2023-04-07T05:02:29;8.20;;;5.67;;
11300;SDS011;5706;50.650;13.380;2023-04-07T05:04:56;5.97;;;5.17;;
11300;SDS011;5706;50.650;13.380;2023-04-07T05:07:24;6.97;;;5.60;;
11300;SDS011;5706;50.650;13.380;2023-04-07T05:09:53;6.43;;;5.00;;
11300;SDS011;5706;50.650;13.380;2023-04-07T05:12:20;8.27;;;5.47;;
11300;SDS011;5706;50.650;13.380;2023-04-07T05:14:48;5.70;;;5.10;;
11300;SDS011;5706;50.650;13.380;2023-04-07T05:17:15;6.13;;;4.80;;
11300;SDS011;5706;50.650;13.380;2023-04-07T05:19:43;7.43;;;5.10;;
11300;SDS011;5706;50.650;13.380;2023-04-07T05:22:10;5.33;;;4.20;;
11300;SDS011;5706;50.650;13.380;2023-04-07T05:24:38;8.43;;;5.10;;
11300;SDS011;5706;50.650;13.380;2023-04-07T05:27:07;8.03;;;5.10;;
11300;SDS011;5706;50.650;13.380;2023-04-07T05:29:34;12.43;;;5.53;;
11300;SDS011;5706;50.650;13.380;2023-04-07T05:32:03;6.27;;;5.50;;
11300;SDS011;5706;50.650;13.380;2023-04-07T05:34:31;5.30;;;4.80;;
11300;SDS011;5706;50.650;13.380;2023-04-07T05:36:58;7.67;;;5.67;;
11300;SDS011;5706;50.650;13.380;2023-04-07T05:39:26;6.27;;;5.33;;
11300;SDS011;5706;50.650;13.380;2023-04-07T05:41:53;6.00;;;5.20;;
11300;SDS011;5706;50.650;13.380;2023-04-07T05:44:23;5.10;;;4.60;;
11300;SDS011;5706;50.650;13.380;2023-04-07T05:46:51;5.33;;;4.60;;
11300;SDS011;5706;50.650;13.380;2023-04-07T05:49:18;5.03;;;4.60;;
11300;SDS011;5706;50.650;13.380;2023-04-07T05:51:46;5.90;;;4.43;;
11300;SDS011;5706;50.650;13.380;2023-04-07T05:54:13;6.40;;;4.67;;
11300;SDS011;5706;50.650;13.380;2023-04-07T05:56:41;5.20;;;4.70;;
11300;SDS011;5706;50.650;13.380;2023-04-07T05:59:08;4.00;;;3.70;;
11300;SDS011;5706;50.650;13.380;2023-04-07T06:01:37;6.90;;;4.07;;
11300;SDS011;5706;50.650;13.380;2023-04-07T06:04:05;4.90;;;4.23;;
11300;SDS011;5706;50.650;13.380;2023-04-07T06:06:32;8.00;;;4.80;;
11300;SDS011;5706;50.650;13.380;2023-04-07T06:09:01;5.90;;;4.80;;
11300;SDS011;5706;50.650;13.380;2023-04-07T06:11:29;5.93;;;4.03;;
11300;SDS011;5706;50.650;13.380;2023-04-07T06:13:56;6.47;;;4.60;;
11300;SDS011;5706;50.650;13.380;2023-04-07T06:16:24;6.07;;;5.03;;
11300;SDS011;5706;50.650;13.380;2023-04-07T06:18:52;6.07;;;4.87;;
11300;SDS011;5706;50.650;13.380;2023-04-07T06:21:20;5.47;;;4.70;;
11300;SDS011;5706;50.650;13.380;2023-04-07T06:23:48;10.00;;;8.07;;
11300;SDS011;5706;50.650;13.380;2023-04-07T06:26:15;13.93;;;9.60;;
11300;SDS011;5706;50.650;13.380;2023-04-07T06:28:43;14.10;;;8.50;;
11300;SDS011;5706;50.650;13.380;2023-04-07T06:31:10;8.33;;;6.43;;
11300;SDS011;5706;50.650;13.380;2023-04-07T06:33:38;8.43;;;6.83;;
11300;SDS011;5706;50.650;13.380;2023-04-07T06:36:07;10.57;;;6.63;;
11300;SDS011;5706;50.650;13.380;2023-04-07T06:38:34;9.17;;;6.77;;
11300;SDS011;5706;50.650;13.380;2023-04-07T06:41:02;17.10;;;10.37;;
11300;SDS011;5706;50.650;13.380;2023-04-07T06:43:30;14.47;;;9.07;;
11300;SDS011;5706;50.650;13.380;2023-04-07T06:45:58;11.03;;;7.73;;
11300;SDS011;5706;50.650;13.380;2023-04-07T06:48:25;6.20;;;5.43;;
11300;SDS011;5706;50.650;13.380;2023-04-07T06:50:53;6.60;;;5.53;;
11300;SDS011;5706;50.650;13.380;2023-04-07T06:53:23;13.13;;;8.63;;
11300;SDS011;5706;50.650;13.380;2023-04-07T06:55:51;11.33;;;8.00;;
11300;SDS011;5706;50.650;13.380;2023-04-07T06:58:31;7.77;;;5.47;;
11300;SDS011;5706;50.650;13.380;2023-04-07T07:01:13;9.30;;;5.87;;
11300;SDS011;5706;50.650;13.380;2023-04-07T07:04:26;7.27;;;6.07;;
11300;SDS011;5706;50.650;13.380;2023-04-07T07:08:17;7.30;;;5.90;;
11300;SDS011;5706;50.650;13.380;2023-04-07T07:44:28;5.10;;;4.43;;
11300;SDS011;5706;50.650;13.380;2023-04-07T07:47:15;6.67;;;4.43;;
11300;SDS011;5706;50.650;13.380;2023-04-07T11:47:38;6.80;;;6.10;;
11300;SDS011;5706;50.650;13.380;2023-04-07T11:50:07;7.87;;;6.30;;
11300;SDS011;5706;50.650;13.380;2023-04-07T11:52:42;7.63;;;6.83;;
11300;SDS011;5706;50.650;13.380;2023-04-07T11:55:17;8.40;;;6.50;;
11300;SDS011;5706;50.650;13.380;2023-04-07T11:57:45;7.68;;;6.68;;
11300;SDS011;5706;50.650;13.380;2023-04-07T12:00:15;8.93;;;6.43;;
11300;SDS011;5706;50.650;13.380;2023-04-07T12:02:45;7.57;;;6.13;;
11300;SDS011;5706;50.650;13.380;2023-04-07T12:05:13;6.97;;;6.00;;
11300;SDS011;5706;50.650;13.380;2023-04-07T12:07:51;6.90;;;5.87;;
11300;SDS011;5706;50.650;13.380;2023-04-07T12:10:19;7.90;;;5.87;;
11300;SDS011;5706;50.650;13.380;2023-04-07T12:12:49;11.60;;;8.10;;
11300;SDS011;5706;50.650;13.380;2023-04-07T12:17:50;8.63;;;6.43;;
11300;SDS011;5706;50.650;13.380;2023-04-07T12:20:19;7.50;;;6.70;;
11300;SDS011;5706;50.650;13.380;2023-04-07T12:22:47;9.83;;;6.47;;
11300;SDS011;5706;50.650;13.380;2023-04-07T12:25:14;7.00;;;6.13;;
11300;SDS011;5706;50.650;13.380;2023-04-07T12:27:42;7.47;;;6.17;;
11300;SDS011;5706;50.650;13.380;2023-04-07T12:30:10;6.77;;;5.83;;
11300;SDS011;5706;50.650;13.380;2023-04-07T12:32:38;6.70;;;6.00;;
11300;SDS011;5706;50.650;13.380;2023-04-07T12:35:09;8.23;;;6.07;;
11300;SDS011;5706;50.650;13.380;2023-04-07T12:37:37;10.97;;;5.97;;
11300;SDS011;5706;50.650;13.380;2023-04-07T12:40:05;6.27;;;5.57;;
11300;SDS011;5706;50.650;13.380;2023-04-07T12:42:33;9.20;;;6.03;;
11300;SDS011;5706;50.650;13.380;2023-04-07T12:45:05;7.60;;;5.87;;
11300;SDS011;5706;50.650;13.380;2023-04-07T12:47:33;8.77;;;6.40;;
11300;SDS011;5706;50.650;13.380;2023-04-07T12:50:01;9.33;;;6.40;;
11300;SDS011;5706;50.650;13.380;2023-04-07T12:52:30;6.90;;;6.00;;
11300;SDS011;5706;50.650;13.380;2023-04-07T12:54:58;8.83;;;6.37;;
11300;SDS011;5706;50.650;13.380;2023-04-07T12:57:26;9.07;;;5.43;;
11300;SDS011;5706;50.650;13.380;2023-04-07T12:59:53;8.40;;;6.60;;
11300;SDS011;5706;50.650;13.380;2023-04-07T13:02:21;6.93;;;5.47;;
11300;SDS011;5706;50.650;13.380;2023-04-07T13:04:48;6.87;;;5.93;;
11300;SDS011;5706;50.650;13.380;2023-04-07T13:07:16;7.70;;;5.53;;
11300;SDS011;5706;50.650;13.380;2023-04-07T13:09:45;6.10;;;5.50;;
11300;SDS011;5706;50.650;13.380;2023-04-07T13:12:13;6.80;;;6.00;;
11300;SDS011;5706;50.650;13.380;2023-04-07T13:14:40;6.70;;;6.00;;
11300;SDS011;5706;50.650;13.380;2023-04-07T13:17:09;7.33;;;6.27;;
11300;SDS011;5706;50.650;13.380;2023-04-07T13:19:36;7.80;;;6.50;;
11300;SDS011;5706;50.650;13.380;2023-04-07T13:22:04;6.70;;;6.00;;
11300;SDS011;5706;50.650;13.380;2023-04-07T13:24:32;8.37;;;6.33;;
11300;SDS011;5706;50.650;13.380;2023-04-07T13:27:01;9.00;;;6.60;;
11300;SDS011;5706;50.650;13.380;2023-04-07T13:29:28;7.50;;;6.53;;
11300;SDS011;5706;50.650;13.380;2023-04-07T13:32:03;7.60;;;6.30;;
11300;SDS011;5706;50.650;13.380;2023-04-07T13:34:31;7.27;;;6.43;;
11300;SDS011;5706;50.650;13.380;2023-04-07T13:36:59;9.00;;;7.33;;
11300;SDS011;5706;50.650;13.380;2023-04-07T13:39:28;8.50;;;6.23;;
11300;SDS011;5706;50.650;13.380;2023-04-07T13:41:57;8.70;;;6.60;;
11300;SDS011;5706;50.650;13.380;2023-04-07T13:44:27;9.03;;;6.00;;
11300;SDS011;5706;50.650;13.380;2023-04-07T13:46:55;9.53;;;7.40;;
11300;SDS011;5706;50.650;13.380;2023-04-07T13:49:23;9.90;;;6.73;;
11300;SDS011;5706;50.650;13.380;2023-04-07T13:51:50;7.83;;;7.03;;
11300;SDS011;5706;50.650;13.380;2023-04-07T13:54:18;9.17;;;7.40;;
11300;SDS011;5706;50.650;13.380;2023-04-07T13:56:46;9.53;;;7.10;;
11300;SDS011;5706;50.650;13.380;2023-04-07T13:59:15;9.30;;;7.20;;
11300;SDS011;5706;50.650;13.380;2023-04-07T14:01:43;7.93;;;6.63;;
11300;SDS011;5706;50.650;13.380;2023-04-07T14:04:11;9.07;;;7.53;;
11300;SDS011;5706;50.650;13.380;2023-04-07T14:06:39;9.17;;;7.60;;
11300;SDS011;5706;50.650;13.380;2023-04-07T14:09:08;8.37;;;7.10;;
11300;SDS011;5706;50.650;13.380;2023-04-07T14:11:35;9.53;;;6.97;;
11300;SDS011;5706;50.650;13.380;2023-04-07T14:14:03;9.27;;;7.17;;
11300;SDS011;5706;50.650;13.380;2023-04-07T14:16:31;7.87;;;6.57;;
11300;SDS011;5706;50.650;13.380;2023-04-07T14:19:00;11.27;;;7.13;;
11300;SDS011;5706;50.650;13.380;2023-04-07T14:21:28;8.33;;;6.93;;
11300;SDS011;5706;50.650;13.380;2023-04-07T14:23:56;11.67;;;8.43;;
11300;SDS011;5706;50.650;13.380;2023-04-07T14:26:24;9.00;;;7.17;;
11300;SDS011;5706;50.650;13.380;2023-04-07T14:28:51;11.37;;;8.47;;
11300;SDS011;5706;50.650;13.380;2023-04-07T14:31:19;8.70;;;7.20;;
11300;SDS011;5706;50.650;13.380;2023-04-07T14:33:46;8.73;;;7.30;;
11300;SDS011;5706;50.650;13.380;2023-04-07T14:36:17;10.13;;;7.23;;
11300;SDS011;5706;50.650;13.380;2023-04-07T14:38:44;9.87;;;6.77;;
11300;SDS011;5706;50.650;13.380;2023-04-07T14:41:14;10.23;;;6.97;;
11300;SDS011;5706;50.650;13.380;2023-04-07T14:43:42;8.60;;;6.90;;
11300;SDS011;5706;50.650;13.380;2023-04-07T14:46:09;10.60;;;7.27;;
11300;SDS011;5706;50.650;13.380;2023-04-07T14:48:39;8.70;;;6.40;;
11300;SDS011;5706;50.650;13.380;2023-04-07T14:51:10;10.27;;;6.77;;
11300;SDS011;5706;50.650;13.380;2023-04-07T14:53:40;8.00;;;6.60;;
11300;SDS011;5706;50.650;13.380;2023-04-07T14:56:09;10.33;;;7.00;;
11300;SDS011;5706;50.650;13.380;2023-04-07T14:58:38;8.00;;;6.37;;
11300;SDS011;5706;50.650;13.380;2023-04-07T15:01:05;8.20;;;6.97;;
11300;SDS011;5706;50.650;13.380;2023-04-07T15:03:33;8.83;;;6.57;;
11300;SDS011;5706;50.650;13.380;2023-04-07T15:06:04;9.33;;;6.43;;
11300;SDS011;5706;50.650;13.380;2023-04-07T15:08:34;8.40;;;6.33;;
11300;SDS011;5706;50.650;13.380;2023-04-07T15:11:04;8.33;;;6.13;;
11300;SDS011;5706;50.650;13.380;2023-04-07T15:13:32;8.57;;;6.63;;
11300;SDS011;5706;50.650;13.380;2023-04-07T15:16:05;7.73;;;6.23;;
11300;SDS011;5706;50.650;13.380;2023-04-07T15:18:34;7.80;;;5.80;;
11300;SDS011;5706;50.650;13.380;2023-04-07T15:21:03;9.03;;;6.63;;
11300;SDS011;5706;50.650;13.380;2023-04-07T15:23:31;8.50;;;6.30;;
11300;SDS011;5706;50.650;13.380;2023-04-07T15:25:58;8.23;;;6.30;;
11300;SDS011;5706;50.650;13.380;2023-04-07T15:28:27;7.60;;;5.87;;
11300;SDS011;5706;50.650;13.380;2023-04-07T15:30:55;9.80;;;6.87;;
11300;SDS011;5706;50.650;13.380;2023-04-07T15:33:23;9.17;;;6.60;;
11300;SDS011;5706;50.650;13.380;2023-04-07T15:35:51;7.23;;;5.90;;
11300;SDS011;5706;50.650;13.380;2023-04-07T15:38:19;6.97;;;6.13;;
11300;SDS011;5706;50.650;13.380;2023-04-07T15:40:46;6.43;;;5.37;;
11300;SDS011;5706;50.650;13.380;2023-04-07T15:43:14;7.97;;;5.87;;
11300;SDS011;5706;50.650;13.380;2023-04-07T15:45:43;7.90;;;6.10;;
11300;SDS011;5706;50.650;13.380;2023-04-07T15:48:12;7.57;;;6.20;;
11300;SDS011;5706;50.650;13.380;2023-04-07T15:50:40;9.83;;;6.93;;
11300;SDS011;5706;50.650;13.380;2023-04-07T15:53:08;9.47;;;7.00;;
11300;SDS011;5706;50.650;13.380;2023-04-07T15:55:36;9.10;;;5.73;;
11300;SDS011;5706;50.650;13.380;2023-04-07T15:58:03;7.53;;;5.40;;
11300;SDS011;5706;50.650;13.380;2023-04-07T16:00:32;10.50;;;7.83;;
11300;SDS011;5706;50.650;13.380;2023-04-07T16:03:02;8.77;;;7.50;;
11300;SDS011;5706;50.650;13.380;2023-04-07T16:05:30;18.43;;;13.93;;
11300;SDS011;5706;50.650;13.380;2023-04-07T16:07:58;8.30;;;6.27;;
11300;SDS011;5706;50.650;13.380;2023-04-07T16:10:25;6.33;;;5.27;;
11300;SDS011;5706;50.650;13.380;2023-04-07T16:12:53;7.03;;;5.57;;
11300;SDS011;5706;50.650;13.380;2023-04-07T16:15:21;7.13;;;5.67;;
11300;SDS011;5706;50.650;13.380;2023-04-07T16:17:48;16.97;;;12.87;;
11300;SDS011;5706;50.650;13.380;2023-04-07T16:20:17;11.50;;;7.93;;
11300;SDS011;5706;50.650;13.380;2023-04-07T16:22:46;7.43;;;6.27;;
11300;SDS011;5706;50.650;13.380;2023-04-07T16:25:14;8.03;;;6.50;;
11300;SDS011;5706;50.650;13.380;2023-04-07T16:27:43;8.63;;;7.00;;
11300;SDS011;5706;50.650;13.380;2023-04-07T16:30:11;8.83;;;6.33;;
11300;SDS011;5706;50.650;13.380;2023-04-07T16:32:40;8.93;;;6.27;;
11300;SDS011;5706;50.650;13.380;2023-04-07T16:35:08;10.37;;;6.63;;
11300;SDS011;5706;50.650;13.380;2023-04-07T16:37:37;9.03;;;7.17;;
11300;SDS011;5706;50.650;13.380;2023-04-07T16:40:07;9.90;;;6.77;;
11300;SDS011;5706;50.650;13.380;2023-04-07T16:42:35;7.73;;;6.70;;
11300;SDS011;5706;50.650;13.380;2023-04-07T16:45:03;8.83;;;6.93;;
11300;SDS011;5706;50.650;13.380;2023-04-07T16:47:32;8.53;;;6.67;;
11300;SDS011;5706;50.650;13.380;2023-04-07T16:50:00;7.80;;;6.53;;
11300;SDS011;5706;50.650;13.380;2023-04-07T16:52:29;9.73;;;6.93;;
11300;SDS011;5706;50.650;13.380;2023-04-07T16:54:59;8.97;;;6.40;;
11300;SDS011;5706;50.650;13.380;2023-04-07T16:57:27;8.23;;;6.90;;
11300;SDS011;5706;50.650;13.380;2023-04-07T16:59:54;9.10;;;7.33;;
11300;SDS011;5706;50.650;13.380;2023-04-07T17:02:22;10.37;;;7.20;;
11300;SDS011;5706;50.650;13.380;2023-04-07T17:04:51;9.50;;;6.93;;
11300;SDS011;5706;50.650;13.380;2023-04-07T17:07:19;7.67;;;6.87;;
11300;SDS011;5706;50.650;13.380;2023-04-07T17:09:48;8.17;;;7.37;;
11300;SDS011;5706;50.650;13.380;2023-04-07T17:12:17;9.43;;;7.50;;
11300;SDS011;5706;50.650;13.380;2023-04-07T17:14:44;9.43;;;6.93;;
11300;SDS011;5706;50.650;13.380;2023-04-07T17:17:12;8.67;;;7.13;;
11300;SDS011;5706;50.650;13.380;2023-04-07T17:19:39;6.93;;;6.20;;
11300;SDS011;5706;50.650;13.380;2023-04-07T17:22:07;7.93;;;6.70;;
11300;SDS011;5706;50.650;13.380;2023-04-07T17:24:35;8.93;;;7.40;;
11300;SDS011;5706;50.650;13.380;2023-04-07T17:27:02;8.33;;;6.70;;
11300;SDS011;5706;50.650;13.380;2023-04-07T17:29:33;7.27;;;6.50;;
11300;SDS011;5706;50.650;13.380;2023-04-07T17:32:04;9.40;;;6.83;;
11300;SDS011;5706;50.650;13.380;2023-04-07T17:34:32;11.47;;;7.53;;
11300;SDS011;5706;50.650;13.380;2023-04-07T17:36:59;9.13;;;7.03;;
11300;SDS011;5706;50.650;13.380;2023-04-07T17:39:28;7.33;;;6.40;;
11300;SDS011;5706;50.650;13.380;2023-04-07T17:41:56;8.30;;;7.47;;
11300;SDS011;5706;50.650;13.380;2023-04-07T17:44:27;7.50;;;6.20;;
11300;SDS011;5706;50.650;13.380;2023-04-07T17:46:57;8.43;;;6.87;;
11300;SDS011;5706;50.650;13.380;2023-04-07T17:49:26;8.23;;;6.80;;
11300;SDS011;5706;50.650;13.380;2023-04-07T17:51:54;8.13;;;7.10;;
11300;SDS011;5706;50.650;13.380;2023-04-07T17:54:22;8.33;;;7.33;;
11300;SDS011;5706;50.650;13.380;2023-04-07T17:56:53;8.13;;;7.30;;
11300;SDS011;5706;50.650;13.380;2023-04-07T17:59:22;11.00;;;7.87;;
11300;SDS011;5706;50.650;13.380;2023-04-07T18:01:49;8.40;;;7.27;;
11300;SDS011;5706;50.650;13.380;2023-04-07T18:04:18;8.53;;;6.70;;
11300;SDS011;5706;50.650;13.380;2023-04-07T18:06:46;10.17;;;7.03;;
11300;SDS011;5706;50.650;13.380;2023-04-07T18:09:14;12.83;;;7.57;;
11300;SDS011;5706;50.650;13.380;2023-04-07T18:11:45;10.20;;;7.10;;
11300;SDS011;5706;50.650;13.380;2023-04-07T18:14:13;14.03;;;11.47;;
11300;SDS011;5706;50.650;13.380;2023-04-07T18:16:41;10.80;;;8.57;;
11300;SDS011;5706;50.650;13.380;2023-04-07T18:19:08;15.53;;;8.87;;
11300;SDS011;5706;50.650;13.380;2023-04-07T18:21:38;8.03;;;7.17;;
11300;SDS011;5706;50.650;13.380;2023-04-07T18:24:06;10.67;;;7.93;;
11300;SDS011;5706;50.650;13.380;2023-04-07T18:26:34;10.10;;;7.30;;
11300;SDS011;5706;50.650;13.380;2023-04-07T18:29:01;10.13;;;7.50;;
11300;SDS011;5706;50.650;13.380;2023-04-07T18:31:31;8.70;;;7.77;;
11300;SDS011;5706;50.650;13.380;2023-04-07T18:34:02;11.67;;;7.93;;
11300;SDS011;5706;50.650;13.380;2023-04-07T18:36:29;9.80;;;7.90;;
11300;SDS011;5706;50.650;13.380;2023-04-07T18:38:58;10.83;;;7.87;;
11300;SDS011;5706;50.650;13.380;2023-04-07T18:41:26;10.13;;;7.20;;
11300;SDS011;5706;50.650;13.380;2023-04-07T18:43:54;9.73;;;7.40;;
11300;SDS011;5706;50.650;13.380;2023-04-07T18:46:22;12.13;;;7.73;;
11300;SDS011;5706;50.650;13.380;2023-04-07T18:48:49;12.00;;;7.80;;
11300;SDS011;5706;50.650;13.380;2023-04-07T18:51:17;9.40;;;7.40;;
11300;SDS011;5706;50.650;13.380;2023-04-07T18:53:45;10.57;;;7.37;;
11300;SDS011;5706;50.650;13.380;2023-04-07T18:56:16;11.70;;;8.40;;
11300;SDS011;5706;50.650;13.380;2023-04-07T18:58:45;11.60;;;7.83;;
11300;SDS011;5706;50.650;13.380;2023-04-07T19:01:16;9.73;;;8.10;;
11300;SDS011;5706;50.650;13.380;2023-04-07T19:03:44;11.07;;;8.43;;
11300;SDS011;5706;50.650;13.380;2023-04-07T19:06:12;10.70;;;8.83;;
11300;SDS011;5706;50.650;13.380;2023-04-07T19:08:40;10.33;;;8.07;;
11300;SDS011;5706;50.650;13.380;2023-04-07T19:11:08;12.47;;;8.43;;
11300;SDS011;5706;50.650;13.380;2023-04-07T19:13:37;14.17;;;9.27;;
11300;SDS011;5706;50.650;13.380;2023-04-07T19:16:05;11.27;;;7.90;;
11300;SDS011;5706;50.650;13.380;2023-04-07T19:18:33;10.57;;;8.27;;
11300;SDS011;5706;50.650;13.380;2023-04-07T19:21:01;12.33;;;8.50;;
11300;SDS011;5706;50.650;13.380;2023-04-07T19:23:29;14.03;;;9.80;;
11300;SDS011;5706;50.650;13.380;2023-04-07T19:25:56;12.33;;;9.27;;
11300;SDS011;5706;50.650;13.380;2023-04-07T19:28:24;14.20;;;9.77;;
11300;SDS011;5706;50.650;13.380;2023-04-07T19:30:55;14.10;;;10.23;;
11300;SDS011;5706;50.650;13.380;2023-04-07T19:33:22;12.67;;;10.03;;